createdAt,value
2019-05-28T00:01:57.342Z,8.30
2019-05-28T00:04:29.554Z,7.90
2019-05-28T00:07:01.457Z,8.10
2019-05-28T00:09:32.933Z,8.18
2019-05-28T00:12:04.470Z,8.30
2019-05-28T00:14:36.223Z,8.10
2019-05-28T00:17:07.728Z,8.35
2019-05-28T00:19:40.142Z,9.08
2019-05-28T00:22:11.631Z,8.30
2019-05-28T00:24:43.321Z,8.00
2019-05-28T00:29:45.700Z,8.70
2019-05-28T00:32:17.256Z,8.95
2019-05-28T00:34:49.116Z,9.08
2019-05-28T00:39:51.550Z,8.40
2019-05-28T00:42:23.309Z,8.90
2019-05-28T00:47:25.069Z,8.88
2019-05-28T00:49:56.578Z,9.20
2019-05-28T00:52:28.268Z,8.83
2019-05-28T00:54:59.669Z,9.13
2019-05-28T00:57:32.063Z,8.90
2019-05-28T01:00:04.670Z,8.60
2019-05-28T01:02:38.697Z,8.93
2019-05-28T01:05:10.688Z,8.20
2019-05-28T01:07:42.405Z,8.50
2019-05-28T01:10:14.622Z,8.33
2019-05-28T01:12:46.082Z,8.98
2019-05-28T01:15:18.108Z,8.38
2019-05-28T01:17:50.171Z,8.83
2019-05-28T01:20:21.634Z,8.85
2019-05-28T01:22:53.229Z,8.50
2019-05-28T01:25:24.715Z,8.85
2019-05-28T01:27:56.741Z,8.48
2019-05-28T01:30:28.244Z,8.25
2019-05-28T01:33:00.214Z,8.33
2019-05-28T01:35:31.964Z,8.23
2019-05-28T01:40:34.303Z,7.65
2019-05-28T01:43:05.731Z,7.72
2019-05-28T01:45:37.297Z,7.60
2019-05-28T01:48:09.409Z,8.15
2019-05-28T01:50:40.872Z,8.13
2019-05-28T01:53:12.598Z,7.67
2019-05-28T01:58:14.318Z,7.28
2019-05-28T02:00:46.637Z,7.85
2019-05-28T02:03:18.607Z,8.20
2019-05-28T02:05:50.467Z,8.53
2019-05-28T02:08:23.740Z,7.70
2019-05-28T02:10:55.466Z,7.95
2019-05-28T02:13:26.792Z,7.70
2019-05-28T02:15:58.215Z,8.35
2019-05-28T02:18:29.909Z,7.03
2019-05-28T02:23:31.694Z,7.45
2019-05-28T02:26:03.154Z,6.80
2019-05-28T02:28:35.505Z,6.42
2019-05-28T02:31:07.263Z,6.72
2019-05-28T02:36:10.117Z,6.72
2019-05-28T02:38:41.619Z,5.80
2019-05-28T02:41:13.005Z,7.08
2019-05-28T02:43:44.870Z,6.70
2019-05-28T02:46:16.931Z,5.72
2019-05-28T02:48:48.772Z,5.67
2019-05-28T02:53:51.453Z,5.83
2019-05-28T02:56:24.768Z,5.87
2019-05-28T02:58:58.150Z,6.72
2019-05-28T03:01:42.999Z,6.67
2019-05-28T03:04:05.670Z,6.75
2019-05-28T03:06:39.724Z,7.03
2019-05-28T03:09:11.564Z,6.55
2019-05-28T03:11:43.766Z,6.67
2019-05-28T03:14:15.692Z,6.40
2019-05-28T03:16:49.462Z,6.40
2019-05-28T03:19:22.071Z,6.35
2019-05-28T03:21:55.211Z,6.22
2019-05-28T03:24:27.954Z,6.37
2019-05-28T03:26:59.481Z,6.33
2019-05-28T03:29:31.084Z,6.08
2019-05-28T03:32:08.112Z,5.87
2019-05-28T03:34:37.844Z,6.00
2019-05-28T03:37:10.347Z,6.60
2019-05-28T03:39:43.992Z,6.42
2019-05-28T03:42:16.191Z,6.47
2019-05-28T03:44:48.279Z,6.08
2019-05-28T03:47:20.100Z,6.40
2019-05-28T03:52:21.819Z,6.35
2019-05-28T03:54:53.333Z,5.97
2019-05-28T03:57:24.757Z,5.78
2019-05-28T03:59:57.998Z,6.25
2019-05-28T04:02:29.870Z,6.22
2019-05-28T04:07:31.798Z,5.87
2019-05-28T04:10:03.308Z,5.70
2019-05-28T04:12:35.009Z,6.10
2019-05-28T04:17:37.219Z,5.50
2019-05-28T04:22:39.421Z,6.40
2019-05-28T04:25:11.243Z,6.00
2019-05-28T04:27:43.769Z,6.40
2019-05-28T04:30:16.992Z,6.08
2019-05-28T04:32:48.441Z,5.90
2019-05-28T04:35:19.905Z,5.60
2019-05-28T04:37:51.324Z,5.78
2019-05-28T04:40:23.253Z,6.08
2019-05-28T04:42:54.678Z,6.12
2019-05-28T04:45:26.163Z,6.10
2019-05-28T04:47:58.036Z,6.08
2019-05-28T04:53:00.405Z,6.33
2019-05-28T04:58:02.363Z,6.85
2019-05-28T05:00:33.947Z,6.35
2019-05-28T05:03:05.868Z,6.72
2019-05-28T05:05:37.665Z,5.97
2019-05-28T05:10:40.649Z,6.30
2019-05-28T05:13:12.074Z,6.25
2019-05-28T05:15:46.999Z,6.10
2019-05-28T05:18:17.305Z,6.05
2019-05-28T05:20:48.683Z,6.17
2019-05-28T05:23:21.976Z,6.40
2019-05-28T05:25:54.247Z,6.42
2019-05-28T05:28:26.651Z,6.65
2019-05-28T05:30:58.182Z,6.75
2019-05-28T05:33:29.580Z,5.87
2019-05-28T05:36:01.476Z,6.10
2019-05-28T05:38:33.904Z,6.03
2019-05-28T05:41:05.300Z,5.78
2019-05-28T05:43:36.801Z,6.58
2019-05-28T05:46:08.822Z,5.67
2019-05-28T05:48:41.108Z,5.60
2019-05-28T05:51:12.656Z,5.55
2019-05-28T05:53:44.059Z,5.08
2019-05-28T05:56:15.855Z,5.25
2019-05-28T06:01:18.242Z,5.10
2019-05-28T06:03:49.800Z,4.80
2019-05-28T06:06:21.264Z,4.55
2019-05-28T06:08:53.096Z,4.80
2019-05-28T06:13:55.308Z,4.35
2019-05-28T06:16:27.199Z,4.12
2019-05-28T06:18:58.770Z,3.65
2019-05-28T06:21:30.243Z,4.30
2019-05-28T06:24:02.031Z,3.92
2019-05-28T06:29:04.055Z,4.35
2019-05-28T06:31:35.954Z,4.37
2019-05-28T06:34:07.528Z,4.00
2019-05-28T06:36:38.958Z,3.95
2019-05-28T06:39:10.839Z,4.22
2019-05-28T06:41:42.282Z,4.10
2019-05-28T06:44:13.645Z,4.60
2019-05-28T06:46:45.043Z,4.17
2019-05-28T06:49:16.881Z,4.60
2019-05-28T06:54:19.092Z,4.47
2019-05-28T06:56:50.558Z,4.03
2019-05-28T06:59:22.570Z,4.22
2019-05-28T07:01:54.405Z,4.42
2019-05-28T07:06:59.218Z,5.22
2019-05-28T07:09:30.784Z,5.12
2019-05-28T07:12:02.374Z,5.37
2019-05-28T07:14:34.734Z,6.05
2019-05-28T07:17:06.700Z,6.72
2019-05-28T07:19:57.424Z,6.42
2019-05-28T07:22:29.447Z,7.67
2019-05-28T07:31:40.296Z,7.12
2019-05-28T07:34:30.402Z,7.50
2019-05-28T07:37:38.593Z,7.53
2019-05-28T07:41:04.271Z,8.23
2019-05-28T07:43:56.377Z,8.15
2019-05-28T07:49:55.967Z,8.28
2019-05-28T07:52:28.002Z,8.50
2019-05-28T07:54:59.642Z,9.65
2019-05-28T07:57:31.076Z,8.95
2019-05-28T08:00:05.317Z,9.90
2019-05-28T08:02:48.690Z,8.98
2019-05-28T08:05:43.165Z,9.00
2019-05-28T08:08:37.077Z,8.43
2019-05-28T08:14:34.808Z,8.95
2019-05-28T08:20:22.786Z,8.88
2019-05-28T08:22:54.674Z,10.55
2019-05-28T08:25:45.358Z,9.75
2019-05-28T08:28:16.387Z,9.80
2019-05-28T08:30:42.832Z,7.58
2019-05-28T08:33:14.131Z,6.95
2019-05-28T08:35:45.489Z,7.65
2019-05-28T08:38:17.421Z,8.78
2019-05-28T08:40:52.615Z,7.72
2019-05-28T08:43:35.818Z,8.75
2019-05-28T08:46:07.495Z,7.30
2019-05-28T08:48:39.397Z,7.58
2019-05-28T08:51:11.678Z,6.40
2019-05-28T08:53:47.632Z,5.90
2019-05-28T08:56:18.978Z,6.37
2019-05-28T08:58:50.678Z,10.58
2019-05-28T09:01:22.633Z,7.60
2019-05-28T09:03:53.950Z,6.42
2019-05-28T09:06:27.204Z,5.58
2019-05-28T09:08:58.717Z,5.60
2019-05-28T09:11:32.224Z,5.85
2019-05-28T09:16:34.484Z,5.87
2019-05-28T09:19:10.264Z,6.72
2019-05-28T09:21:40.028Z,6.50
2019-05-28T09:26:41.853Z,6.47
2019-05-28T09:29:16.518Z,6.45
2019-05-28T09:31:57.420Z,7.00
2019-05-28T09:34:33.298Z,7.12
2019-05-28T09:37:14.063Z,7.20
2019-05-28T09:40:01.981Z,7.70
2019-05-28T09:42:33.402Z,7.50
2019-05-28T09:45:21.397Z,8.20
2019-05-28T09:47:38.314Z,8.33
2019-05-28T09:50:29.186Z,8.70
2019-05-28T09:53:30.593Z,8.55
2019-05-28T09:56:07.002Z,9.10
2019-05-28T09:58:38.880Z,13.38
2019-05-28T10:01:10.336Z,12.45
2019-05-28T10:03:41.886Z,13.08
2019-05-28T10:06:17.443Z,13.62
2019-05-28T10:08:47.008Z,12.90
2019-05-28T10:11:19.443Z,14.80
2019-05-28T10:13:51.562Z,13.98
2019-05-28T10:16:24.414Z,15.13
2019-05-28T10:18:55.785Z,16.12
2019-05-28T10:21:27.179Z,16.32
2019-05-28T10:23:59.179Z,17.02
2019-05-28T10:26:30.870Z,17.25
2019-05-28T10:29:03.126Z,16.60
2019-05-28T10:31:34.486Z,16.62
2019-05-28T10:34:08.361Z,17.57
2019-05-28T10:36:40.349Z,17.32
2019-05-28T10:39:11.714Z,17.32
2019-05-28T10:41:48.329Z,17.23
2019-05-28T10:44:19.807Z,16.87
2019-05-28T10:46:57.127Z,16.20
2019-05-28T10:49:41.373Z,16.55
2019-05-28T10:52:16.523Z,16.60
2019-05-28T10:54:48.838Z,16.45
2019-05-28T10:57:27.418Z,15.68
2019-05-28T11:00:04.199Z,15.93
2019-05-28T11:02:36.586Z,16.77
2019-05-28T11:05:11.238Z,15.32
2019-05-28T11:07:48.862Z,16.67
2019-05-28T11:10:25.047Z,17.55
2019-05-28T11:12:56.973Z,18.55
2019-05-28T11:15:30.255Z,18.37
2019-05-28T11:18:03.990Z,17.60
2019-05-28T11:20:36.796Z,16.67
2019-05-28T11:23:08.324Z,17.30
2019-05-28T11:25:39.865Z,15.83
2019-05-28T11:28:15.195Z,15.78
2019-05-28T11:30:52.802Z,12.93
2019-05-28T11:33:24.787Z,13.15
2019-05-28T11:36:02.529Z,12.15
2019-05-28T11:38:41.143Z,9.30
2019-05-28T11:41:14.750Z,9.43
2019-05-28T11:43:46.515Z,9.25
2019-05-28T11:48:51.511Z,7.92
2019-05-28T11:51:23.827Z,7.28
2019-05-28T11:53:56.073Z,6.87
2019-05-28T11:56:33.843Z,7.20
2019-05-28T11:59:05.892Z,7.00
2019-05-28T12:04:10.394Z,6.70
2019-05-28T12:06:44.552Z,5.90
2019-05-28T12:09:16.557Z,6.12
2019-05-28T12:11:48.792Z,6.30
2019-05-28T12:14:21.416Z,6.45
2019-05-28T12:16:53.673Z,6.45
2019-05-28T12:21:55.376Z,6.58
2019-05-28T12:27:04.964Z,7.03
2019-05-28T12:29:50.988Z,6.78
2019-05-28T12:32:11.598Z,6.80
2019-05-28T12:34:43.443Z,6.85
2019-05-28T12:37:15.852Z,6.92
2019-05-28T12:39:48.005Z,7.83
2019-05-28T12:42:26.260Z,9.43
2019-05-28T12:45:09.114Z,9.40
2019-05-28T12:47:31.360Z,8.83
2019-05-28T12:50:18.054Z,9.43
2019-05-28T12:52:37.262Z,10.08
2019-05-28T12:55:15.055Z,10.03
2019-05-28T12:57:48.512Z,9.10
2019-05-28T13:00:23.262Z,9.45
2019-05-28T13:02:56.301Z,7.83
2019-05-28T13:05:30.292Z,7.62
2019-05-28T13:08:08.934Z,7.67
2019-05-28T13:10:35.888Z,7.12
2019-05-28T13:13:07.331Z,6.40
2019-05-28T13:15:42.480Z,6.55
2019-05-28T13:18:14.452Z,5.90
2019-05-28T13:20:51.459Z,5.42
2019-05-28T13:23:25.044Z,5.20
2019-05-28T13:25:57.048Z,5.95
2019-05-28T13:28:31.759Z,5.90
2019-05-28T13:31:05.890Z,5.40
2019-05-28T13:33:38.537Z,5.53
2019-05-28T13:36:11.301Z,6.55
2019-05-28T13:41:16.052Z,5.17
2019-05-28T13:46:21.238Z,5.45
2019-05-28T13:48:54.236Z,5.10
2019-05-28T13:51:26.045Z,5.05
2019-05-28T13:53:57.871Z,5.53
2019-05-28T13:56:32.404Z,5.47
2019-05-28T13:59:06.128Z,5.33
2019-05-28T14:01:39.794Z,5.00
2019-05-28T14:06:48.302Z,5.20
2019-05-28T14:09:21.604Z,4.90
2019-05-28T14:11:53.131Z,4.53
2019-05-28T14:14:24.729Z,5.08
2019-05-28T14:16:59.123Z,4.47
2019-05-28T14:19:31.418Z,5.12
2019-05-28T14:22:04.736Z,5.10
2019-05-28T14:24:39.296Z,5.60
2019-05-28T14:27:10.733Z,5.60
2019-05-28T14:29:42.559Z,6.00
2019-05-28T14:34:46.506Z,5.50
2019-05-28T14:37:20.256Z,6.45
2019-05-28T14:39:52.184Z,5.92
2019-05-28T14:42:31.333Z,6.42
2019-05-28T14:45:04.033Z,6.55
2019-05-28T14:47:39.210Z,6.15
2019-05-28T14:50:13.850Z,6.12
2019-05-28T14:52:50.475Z,6.22
2019-05-28T14:55:26.174Z,6.53
2019-05-28T14:58:04.265Z,6.00
2019-05-28T15:00:33.218Z,6.60
2019-05-28T15:03:09.198Z,6.28
2019-05-28T15:05:42.052Z,7.20
2019-05-28T15:08:13.926Z,7.90
2019-05-28T15:13:18.373Z,7.60
2019-05-28T15:15:50.562Z,7.95
2019-05-28T15:18:23.493Z,7.70
2019-05-28T15:20:59.408Z,8.38
2019-05-28T15:23:34.030Z,7.58
2019-05-28T15:26:07.880Z,7.62
2019-05-28T15:28:39.389Z,7.35
2019-05-28T15:31:13.584Z,6.83
2019-05-28T15:33:48.598Z,6.62
2019-05-28T15:36:21.727Z,5.60
2019-05-28T15:38:53.236Z,5.15
2019-05-28T15:41:28.824Z,5.25
2019-05-28T15:44:01.251Z,4.65
2019-05-28T15:46:32.734Z,4.62
2019-05-28T15:49:07.385Z,4.53
2019-05-28T15:51:45.766Z,4.10
2019-05-28T15:54:17.962Z,4.45
2019-05-28T15:56:49.775Z,3.72
2019-05-28T15:59:30.517Z,3.98
2019-05-28T16:02:02.575Z,3.75
2019-05-28T16:04:34.450Z,3.85
2019-05-28T16:07:05.901Z,3.98
2019-05-28T16:09:55.188Z,3.58
2019-05-28T16:12:17.369Z,4.10
2019-05-28T16:14:50.433Z,3.58
2019-05-28T16:17:28.814Z,3.45
2019-05-28T16:20:09.160Z,3.95
2019-05-28T16:22:42.357Z,3.55
2019-05-28T16:25:15.017Z,3.37
2019-05-28T16:27:50.744Z,4.05
2019-05-28T16:30:23.347Z,3.67
2019-05-28T16:32:55.714Z,4.10
2019-05-28T16:35:27.817Z,3.52
2019-05-28T16:38:04.505Z,3.92
2019-05-28T16:40:37.388Z,3.67
2019-05-28T16:43:09.239Z,4.28
2019-05-28T16:45:41.211Z,4.58
2019-05-28T16:48:15.901Z,4.60
2019-05-28T16:50:49.945Z,4.55
2019-05-28T16:53:22.468Z,4.90
2019-05-28T16:55:57.590Z,5.22
2019-05-28T16:58:37.093Z,5.22
2019-05-28T17:01:22.390Z,4.95
2019-05-28T17:03:45.797Z,5.62
2019-05-28T17:06:25.409Z,5.22
2019-05-28T17:09:06.738Z,4.97
2019-05-28T17:11:42.587Z,5.17
2019-05-28T17:14:14.091Z,5.22
2019-05-28T17:16:50.227Z,6.08
2019-05-28T17:19:21.739Z,5.33
2019-05-28T17:24:24.961Z,5.60
2019-05-28T17:27:15.705Z,5.17
2019-05-28T17:29:50.685Z,5.12
2019-05-28T17:32:22.041Z,5.15
2019-05-28T17:34:57.462Z,5.03
2019-05-28T17:37:35.800Z,4.65
2019-05-28T17:40:08.321Z,4.20
2019-05-28T17:42:40.010Z,4.15
2019-05-28T17:45:14.582Z,3.95
2019-05-28T17:47:50.139Z,3.92
2019-05-28T17:50:25.411Z,4.25
2019-05-28T17:52:57.482Z,4.67
2019-05-28T17:55:37.013Z,4.15
2019-05-28T17:58:15.216Z,3.83
2019-05-28T18:00:49.058Z,3.92
2019-05-28T18:03:21.379Z,4.10
2019-05-28T18:05:56.455Z,4.22
2019-05-28T18:08:29.720Z,4.03
2019-05-28T18:11:04.757Z,4.40
2019-05-28T18:13:35.603Z,4.50
2019-05-28T18:16:10.304Z,3.92
2019-05-28T18:18:45.304Z,4.12
2019-05-28T18:21:16.863Z,4.00
2019-05-28T18:23:49.785Z,4.12
2019-05-28T18:26:22.999Z,4.22
2019-05-28T18:29:01.302Z,4.00
2019-05-28T18:31:33.352Z,3.95
2019-05-28T18:34:17.293Z,4.03
2019-05-28T18:36:50.862Z,3.70
2019-05-28T18:39:25.490Z,3.80
2019-05-28T18:41:57.455Z,3.75
2019-05-28T18:44:37.415Z,3.45
2019-05-28T18:47:09.910Z,3.98
2019-05-28T18:52:12.124Z,3.37
2019-05-28T18:57:15.457Z,3.95
2019-05-28T18:59:48.897Z,3.33
2019-05-28T19:02:20.998Z,4.00
2019-05-28T19:04:54.481Z,3.55
2019-05-28T19:07:29.437Z,3.10
2019-05-28T19:10:01.571Z,3.30
2019-05-28T19:12:38.806Z,3.33
2019-05-28T19:15:11.459Z,3.77
2019-05-28T19:17:43.432Z,3.62
2019-05-28T19:20:16.217Z,3.55
2019-05-28T19:22:48.476Z,3.12
2019-05-28T19:25:20.518Z,3.17
2019-05-28T19:27:52.036Z,3.45
2019-05-28T19:30:35.832Z,3.10
2019-05-28T19:33:11.115Z,3.00
2019-05-28T19:35:43.510Z,2.98
2019-05-28T19:38:15.021Z,3.02
2019-05-28T19:40:48.043Z,2.77
2019-05-28T19:43:21.160Z,2.62
2019-05-28T19:45:52.885Z,2.42
2019-05-28T19:50:55.360Z,3.20
2019-05-28T19:53:27.688Z,3.00
2019-05-28T19:55:59.510Z,3.27
2019-05-28T20:03:33.708Z,2.92
2019-05-28T20:06:05.149Z,2.80
2019-05-28T20:08:38.125Z,2.80
2019-05-28T20:11:10.163Z,3.08
2019-05-28T20:13:43.062Z,2.83
2019-05-28T20:16:16.802Z,3.25
2019-05-28T20:18:49.390Z,2.47
2019-05-28T20:21:22.071Z,2.85
2019-05-28T20:23:54.507Z,2.50
2019-05-28T20:26:26.529Z,2.50
2019-05-28T20:29:08.567Z,2.47
2019-05-28T20:31:33.929Z,2.20
2019-05-28T20:34:05.533Z,2.67
2019-05-28T20:36:38.872Z,2.70
2019-05-28T20:39:12.411Z,2.33
2019-05-28T20:41:44.505Z,2.80
2019-05-28T20:46:46.504Z,2.37
2019-05-28T20:49:22.481Z,2.60
2019-05-28T20:51:54.324Z,2.33
2019-05-28T20:54:26.623Z,2.30
2019-05-28T20:56:58.147Z,2.27
2019-05-28T20:59:30.628Z,2.40
2019-05-28T21:02:02.283Z,2.70
2019-05-28T21:04:36.117Z,2.17
2019-05-28T21:07:07.964Z,2.33
2019-05-28T21:12:12.105Z,2.50
2019-05-28T21:17:14.486Z,2.25
2019-05-28T21:19:49.155Z,2.15
2019-05-28T21:22:26.618Z,2.10
2019-05-28T21:24:56.165Z,1.80
2019-05-28T21:27:28.178Z,2.27
2019-05-28T21:30:01.545Z,2.02
2019-05-28T21:32:34.574Z,1.90
2019-05-28T21:35:07.123Z,2.08
2019-05-28T21:37:38.406Z,2.05
2019-05-28T21:40:10.839Z,2.12
2019-05-28T21:42:56.517Z,2.22
2019-05-28T21:45:17.562Z,1.92
2019-05-28T21:47:48.966Z,2.50
2019-05-28T21:50:21.616Z,2.37
2019-05-28T21:52:55.265Z,2.50
2019-05-28T21:55:27.421Z,2.30
2019-05-28T21:57:59.900Z,2.45
2019-05-28T22:00:42.210Z,2.45
2019-05-28T22:03:15.863Z,2.58
2019-05-28T22:05:48.955Z,2.50
2019-05-28T22:08:20.878Z,2.35
2019-05-28T22:10:52.621Z,2.22
2019-05-28T22:13:25.156Z,2.50
2019-05-28T22:15:59.782Z,2.60
2019-05-28T22:18:32.413Z,2.37
2019-05-28T22:22:15.854Z,2.30
2019-05-28T22:24:47.918Z,2.80
2019-05-28T22:27:19.915Z,3.02
2019-05-28T22:29:52.917Z,3.15
2019-05-28T22:32:27.256Z,2.62
2019-05-28T22:34:59.941Z,2.85
2019-05-28T22:37:31.735Z,2.90
2019-05-28T22:42:34.386Z,2.98
2019-05-28T22:45:07.199Z,3.22
2019-05-28T22:47:39.490Z,2.83
2019-05-28T22:50:21.866Z,2.90
2019-05-28T22:52:47.246Z,3.08
2019-05-28T22:55:19.310Z,3.12
2019-05-28T22:57:51.110Z,2.55
2019-05-28T23:00:23.131Z,3.17
2019-05-28T23:02:56.490Z,3.33
2019-05-28T23:05:28.912Z,3.30
2019-05-28T23:10:30.647Z,3.45
2019-05-28T23:13:03.035Z,4.03
2019-05-28T23:15:34.416Z,3.50
2019-05-28T23:18:07.299Z,2.95
2019-05-28T23:20:39.245Z,3.35
2019-05-28T23:23:11.508Z,3.20
2019-05-28T23:25:42.916Z,3.17
2019-05-28T23:28:14.391Z,3.35
2019-05-28T23:30:46.280Z,3.55
2019-05-28T23:33:17.681Z,3.80
2019-05-28T23:35:49.859Z,3.40
2019-05-28T23:38:21.229Z,3.40
2019-05-28T23:40:52.645Z,3.67
2019-05-28T23:43:24.361Z,3.20
2019-05-28T23:45:55.801Z,3.80
2019-05-28T23:48:27.520Z,3.70
2019-05-28T23:50:58.993Z,3.92
2019-05-28T23:53:30.369Z,3.27
2019-05-28T23:56:01.752Z,3.58
2019-05-28T23:58:33.049Z,3.87
